sensor_id;sensor_type;location;lat;lon;timestamp;P1;durP1;ratioP1;P2;durP2;ratioP2
16880;SDS011;8557;52.068;5.198;2022-11-23T00:01:11;14.57;;;10.93;;
16880;SDS011;8557;52.068;5.198;2022-11-23T00:03:39;18.85;;;11.23;;
16880;SDS011;8557;52.068;5.198;2022-11-23T00:06:06;18.80;;;11.73;;
16880;SDS011;8557;52.068;5.198;2022-11-23T00:08:33;20.58;;;12.57;;
16880;SDS011;8557;52.068;5.198;2022-11-23T00:11:00;21.55;;;12.15;;
16880;SDS011;8557;52.068;5.198;2022-11-23T00:13:27;19.77;;;13.23;;
16880;SDS011;8557;52.068;5.198;2022-11-23T00:15:55;18.67;;;13.25;;
16880;SDS011;8557;52.068;5.198;2022-11-23T00:18:22;17.20;;;12.57;;
16880;SDS011;8557;52.068;5.198;2022-11-23T00:20:48;22.23;;;13.68;;
16880;SDS011;8557;52.068;5.198;2022-11-23T00:23:15;20.92;;;14.35;;
16880;SDS011;8557;52.068;5.198;2022-11-23T00:25:43;23.75;;;14.18;;
16880;SDS011;8557;52.068;5.198;2022-11-23T00:28:10;24.45;;;14.50;;
16880;SDS011;8557;52.068;5.198;2022-11-23T00:30:37;17.75;;;13.77;;
16880;SDS011;8557;52.068;5.198;2022-11-23T00:33:06;24.08;;;15.25;;
16880;SDS011;8557;52.068;5.198;2022-11-23T00:35:32;21.85;;;14.60;;
16880;SDS011;8557;52.068;5.198;2022-11-23T00:37:59;23.33;;;15.02;;
16880;SDS011;8557;52.068;5.198;2022-11-23T00:40:26;21.13;;;14.65;;
16880;SDS011;8557;52.068;5.198;2022-11-23T00:42:53;23.33;;;14.80;;
16880;SDS011;8557;52.068;5.198;2022-11-23T00:45:19;18.08;;;13.88;;
16880;SDS011;8557;52.068;5.198;2022-11-23T00:47:46;22.38;;;14.43;;
16880;SDS011;8557;52.068;5.198;2022-11-23T00:50:14;20.75;;;13.68;;
16880;SDS011;8557;52.068;5.198;2022-11-23T00:52:41;19.88;;;13.35;;
16880;SDS011;8557;52.068;5.198;2022-11-23T00:55:08;20.48;;;13.75;;
16880;SDS011;8557;52.068;5.198;2022-11-23T00:57:35;20.95;;;13.38;;
16880;SDS011;8557;52.068;5.198;2022-11-23T01:00:02;19.27;;;12.95;;
16880;SDS011;8557;52.068;5.198;2022-11-23T01:02:30;18.10;;;12.77;;
16880;SDS011;8557;52.068;5.198;2022-11-23T01:04:56;21.13;;;12.93;;
16880;SDS011;8557;52.068;5.198;2022-11-23T01:07:24;22.35;;;13.13;;
16880;SDS011;8557;52.068;5.198;2022-11-23T01:09:54;19.83;;;13.13;;
16880;SDS011;8557;52.068;5.198;2022-11-23T01:12:21;21.08;;;12.75;;
16880;SDS011;8557;52.068;5.198;2022-11-23T01:14:47;19.13;;;12.77;;
16880;SDS011;8557;52.068;5.198;2022-11-23T01:17:14;25.77;;;13.73;;
16880;SDS011;8557;52.068;5.198;2022-11-23T01:19:41;23.65;;;14.38;;
16880;SDS011;8557;52.068;5.198;2022-11-23T01:22:08;20.77;;;13.10;;
16880;SDS011;8557;52.068;5.198;2022-11-23T01:24:36;20.73;;;13.40;;
16880;SDS011;8557;52.068;5.198;2022-11-23T01:27:02;20.85;;;13.63;;
16880;SDS011;8557;52.068;5.198;2022-11-23T01:29:29;20.48;;;13.07;;
16880;SDS011;8557;52.068;5.198;2022-11-23T01:31:56;18.10;;;12.77;;
16880;SDS011;8557;52.068;5.198;2022-11-23T01:34:23;22.30;;;13.13;;
16880;SDS011;8557;52.068;5.198;2022-11-23T01:36:49;18.42;;;12.45;;
16880;SDS011;8557;52.068;5.198;2022-11-23T01:39:16;15.02;;;11.93;;
16880;SDS011;8557;52.068;5.198;2022-11-23T01:41:44;17.90;;;11.65;;
16880;SDS011;8557;52.068;5.198;2022-11-23T01:44:22;18.30;;;11.77;;
16880;SDS011;8557;52.068;5.198;2022-11-23T01:46:50;16.52;;;10.75;;
16880;SDS011;8557;52.068;5.198;2022-11-23T01:49:17;19.38;;;11.13;;
16880;SDS011;8557;52.068;5.198;2022-11-23T01:51:44;16.63;;;10.50;;
16880;SDS011;8557;52.068;5.198;2022-11-23T01:54:14;17.13;;;11.18;;
16880;SDS011;8557;52.068;5.198;2022-11-23T01:56:45;17.92;;;10.60;;
16880;SDS011;8557;52.068;5.198;2022-11-23T01:59:15;20.75;;;10.75;;
16880;SDS011;8557;52.068;5.198;2022-11-23T02:01:44;17.83;;;10.23;;
16880;SDS011;8557;52.068;5.198;2022-11-23T02:04:11;16.55;;;10.77;;
16880;SDS011;8557;52.068;5.198;2022-11-23T02:06:41;11.98;;;9.48;;
16880;SDS011;8557;52.068;5.198;2022-11-23T02:09:10;16.38;;;10.25;;
16880;SDS011;8557;52.068;5.198;2022-11-23T02:11:37;14.02;;;9.85;;
16880;SDS011;8557;52.068;5.198;2022-11-23T02:14:05;16.88;;;9.95;;
16880;SDS011;8557;52.068;5.198;2022-11-23T02:16:32;16.63;;;10.25;;
16880;SDS011;8557;52.068;5.198;2022-11-23T02:18:59;15.80;;;10.18;;
16880;SDS011;8557;52.068;5.198;2022-11-23T02:21:26;18.92;;;9.90;;
16880;SDS011;8557;52.068;5.198;2022-11-23T02:23:54;14.57;;;9.90;;
16880;SDS011;8557;52.068;5.198;2022-11-23T02:26:28;16.15;;;9.43;;
16880;SDS011;8557;52.068;5.198;2022-11-23T02:28:59;13.93;;;9.57;;
16880;SDS011;8557;52.068;5.198;2022-11-23T02:31:28;16.88;;;9.85;;
16880;SDS011;8557;52.068;5.198;2022-11-23T02:33:55;14.25;;;9.18;;
16880;SDS011;8557;52.068;5.198;2022-11-23T02:36:27;13.50;;;8.80;;
16880;SDS011;8557;52.068;5.198;2022-11-23T02:39:02;13.48;;;8.60;;
16880;SDS011;8557;52.068;5.198;2022-11-23T02:41:35;15.10;;;9.07;;
16880;SDS011;8557;52.068;5.198;2022-11-23T02:44:03;15.27;;;8.55;;
16880;SDS011;8557;52.068;5.198;2022-11-23T02:46:37;15.27;;;8.23;;
16880;SDS011;8557;52.068;5.198;2022-11-23T02:49:03;16.90;;;8.38;;
16880;SDS011;8557;52.068;5.198;2022-11-23T02:51:30;15.70;;;9.27;;
16880;SDS011;8557;52.068;5.198;2022-11-23T02:53:57;15.40;;;8.55;;
16880;SDS011;8557;52.068;5.198;2022-11-23T02:56:24;14.60;;;7.45;;
16880;SDS011;8557;52.068;5.198;2022-11-23T02:58:52;12.93;;;8.05;;
16880;SDS011;8557;52.068;5.198;2022-11-23T03:01:19;16.65;;;8.68;;
16880;SDS011;8557;52.068;5.198;2022-11-23T03:03:46;14.82;;;9.00;;
16880;SDS011;8557;52.068;5.198;2022-11-23T03:06:12;16.90;;;8.38;;
16880;SDS011;8557;52.068;5.198;2022-11-23T03:08:39;15.85;;;9.25;;
16880;SDS011;8557;52.068;5.198;2022-11-23T03:11:06;12.95;;;8.82;;
16880;SDS011;8557;52.068;5.198;2022-11-23T03:13:33;12.10;;;7.90;;
16880;SDS011;8557;52.068;5.198;2022-11-23T03:16:01;14.75;;;9.15;;
16880;SDS011;8557;52.068;5.198;2022-11-23T03:18:27;13.82;;;9.02;;
16880;SDS011;8557;52.068;5.198;2022-11-23T03:20:54;16.60;;;9.77;;
16880;SDS011;8557;52.068;5.198;2022-11-23T03:23:26;13.85;;;9.43;;
16880;SDS011;8557;52.068;5.198;2022-11-23T03:25:53;13.80;;;9.00;;
16880;SDS011;8557;52.068;5.198;2022-11-23T03:28:21;12.75;;;9.60;;
16880;SDS011;8557;52.068;5.198;2022-11-23T03:30:47;15.73;;;9.82;;
16880;SDS011;8557;52.068;5.198;2022-11-23T03:33:15;12.77;;;9.57;;
16880;SDS011;8557;52.068;5.198;2022-11-23T03:35:43;16.50;;;10.52;;
16880;SDS011;8557;52.068;5.198;2022-11-23T03:38:10;11.73;;;8.93;;
16880;SDS011;8557;52.068;5.198;2022-11-23T03:40:36;12.98;;;9.30;;
16880;SDS011;8557;52.068;5.198;2022-11-23T03:43:03;14.93;;;8.55;;
16880;SDS011;8557;52.068;5.198;2022-11-23T03:45:30;12.85;;;8.95;;
16880;SDS011;8557;52.068;5.198;2022-11-23T03:47:57;13.35;;;8.93;;
16880;SDS011;8557;52.068;5.198;2022-11-23T03:50:25;13.63;;;8.57;;
16880;SDS011;8557;52.068;5.198;2022-11-23T03:52:53;12.45;;;9.07;;
16880;SDS011;8557;52.068;5.198;2022-11-23T03:55:20;15.27;;;8.85;;
16880;SDS011;8557;52.068;5.198;2022-11-23T03:57:47;12.27;;;8.38;;
16880;SDS011;8557;52.068;5.198;2022-11-23T04:00:14;14.57;;;8.20;;
16880;SDS011;8557;52.068;5.198;2022-11-23T04:02:41;13.02;;;8.00;;
16880;SDS011;8557;52.068;5.198;2022-11-23T04:05:08;11.48;;;8.00;;
16880;SDS011;8557;52.068;5.198;2022-11-23T04:07:37;11.60;;;8.07;;
16880;SDS011;8557;52.068;5.198;2022-11-23T04:10:04;13.40;;;8.00;;
16880;SDS011;8557;52.068;5.198;2022-11-23T04:12:31;11.00;;;6.95;;
16880;SDS011;8557;52.068;5.198;2022-11-23T04:14:58;13.57;;;7.47;;
16880;SDS011;8557;52.068;5.198;2022-11-23T04:17:24;11.70;;;7.30;;
16880;SDS011;8557;52.068;5.198;2022-11-23T04:19:51;11.73;;;6.43;;
16880;SDS011;8557;52.068;5.198;2022-11-23T04:22:18;12.90;;;6.70;;
16880;SDS011;8557;52.068;5.198;2022-11-23T04:24:46;9.25;;;5.68;;
16880;SDS011;8557;52.068;5.198;2022-11-23T04:27:13;12.05;;;6.60;;
16880;SDS011;8557;52.068;5.198;2022-11-23T04:29:39;10.40;;;6.60;;
16880;SDS011;8557;52.068;5.198;2022-11-23T04:32:06;10.63;;;6.40;;
16880;SDS011;8557;52.068;5.198;2022-11-23T04:34:33;8.52;;;6.18;;
16880;SDS011;8557;52.068;5.198;2022-11-23T04:36:59;10.60;;;6.70;;
16880;SDS011;8557;52.068;5.198;2022-11-23T04:39:26;12.38;;;6.82;;
16880;SDS011;8557;52.068;5.198;2022-11-23T04:41:55;14.85;;;7.00;;
16880;SDS011;8557;52.068;5.198;2022-11-23T04:44:21;14.73;;;7.30;;
16880;SDS011;8557;52.068;5.198;2022-11-23T04:46:48;13.95;;;7.43;;
16880;SDS011;8557;52.068;5.198;2022-11-23T04:49:15;12.75;;;6.88;;
16880;SDS011;8557;52.068;5.198;2022-11-23T04:51:42;14.30;;;7.45;;
16880;SDS011;8557;52.068;5.198;2022-11-23T04:54:09;13.50;;;7.30;;
16880;SDS011;8557;52.068;5.198;2022-11-23T04:56:35;11.00;;;7.07;;
16880;SDS011;8557;52.068;5.198;2022-11-23T04:59:04;15.70;;;8.38;;
16880;SDS011;8557;52.068;5.198;2022-11-23T05:01:31;11.20;;;6.88;;
16880;SDS011;8557;52.068;5.198;2022-11-23T05:03:58;10.02;;;6.43;;
16880;SDS011;8557;52.068;5.198;2022-11-23T05:06:24;13.02;;;6.15;;
16880;SDS011;8557;52.068;5.198;2022-11-23T05:08:51;12.35;;;6.13;;
16880;SDS011;8557;52.068;5.198;2022-11-23T05:11:18;12.23;;;6.18;;
16880;SDS011;8557;52.068;5.198;2022-11-23T05:13:45;10.75;;;5.50;;
16880;SDS011;8557;52.068;5.198;2022-11-23T05:16:13;12.25;;;5.95;;
16880;SDS011;8557;52.068;5.198;2022-11-23T05:18:39;10.30;;;5.57;;
16880;SDS011;8557;52.068;5.198;2022-11-23T05:21:06;13.43;;;5.95;;
16880;SDS011;8557;52.068;5.198;2022-11-23T05:23:33;15.32;;;6.18;;
16880;SDS011;8557;52.068;5.198;2022-11-23T05:26:00;12.13;;;5.60;;
16880;SDS011;8557;52.068;5.198;2022-11-23T05:28:26;11.88;;;5.55;;
16880;SDS011;8557;52.068;5.198;2022-11-23T05:30:53;12.30;;;5.10;;
16880;SDS011;8557;52.068;5.198;2022-11-23T05:33:21;13.90;;;5.43;;
16880;SDS011;8557;52.068;5.198;2022-11-23T05:35:48;12.63;;;5.20;;
16880;SDS011;8557;52.068;5.198;2022-11-23T05:38:15;13.30;;;4.97;;
16880;SDS011;8557;52.068;5.198;2022-11-23T05:40:43;9.95;;;4.93;;
16880;SDS011;8557;52.068;5.198;2022-11-23T05:43:10;8.40;;;4.85;;
16880;SDS011;8557;52.068;5.198;2022-11-23T05:45:37;12.57;;;5.05;;
16880;SDS011;8557;52.068;5.198;2022-11-23T05:48:04;11.25;;;4.90;;
16880;SDS011;8557;52.068;5.198;2022-11-23T05:50:32;12.25;;;5.85;;
16880;SDS011;8557;52.068;5.198;2022-11-23T05:52:59;14.02;;;5.00;;
16880;SDS011;8557;52.068;5.198;2022-11-23T05:55:26;15.63;;;5.32;;
16880;SDS011;8557;52.068;5.198;2022-11-23T05:57:52;10.75;;;5.72;;
16880;SDS011;8557;52.068;5.198;2022-11-23T06:00:19;10.90;;;5.25;;
16880;SDS011;8557;52.068;5.198;2022-11-23T06:02:46;11.60;;;5.85;;
16880;SDS011;8557;52.068;5.198;2022-11-23T06:05:13;9.50;;;5.57;;
16880;SDS011;8557;52.068;5.198;2022-11-23T06:07:42;13.45;;;5.93;;
16880;SDS011;8557;52.068;5.198;2022-11-23T06:10:09;14.32;;;6.13;;
16880;SDS011;8557;52.068;5.198;2022-11-23T06:12:38;13.45;;;6.25;;
16880;SDS011;8557;52.068;5.198;2022-11-23T06:15:05;10.35;;;6.22;;
16880;SDS011;8557;52.068;5.198;2022-11-23T06:17:32;15.18;;;6.38;;
16880;SDS011;8557;52.068;5.198;2022-11-23T06:20:00;12.57;;;5.75;;
16880;SDS011;8557;52.068;5.198;2022-11-23T06:22:28;13.00;;;5.80;;
16880;SDS011;8557;52.068;5.198;2022-11-23T06:24:56;16.42;;;5.70;;
16880;SDS011;8557;52.068;5.198;2022-11-23T06:27:23;8.88;;;5.20;;
16880;SDS011;8557;52.068;5.198;2022-11-23T06:29:50;16.77;;;4.90;;
16880;SDS011;8557;52.068;5.198;2022-11-23T06:32:16;10.38;;;4.57;;
16880;SDS011;8557;52.068;5.198;2022-11-23T06:34:43;10.00;;;4.28;;
16880;SDS011;8557;52.068;5.198;2022-11-23T06:37:10;11.25;;;4.20;;
16880;SDS011;8557;52.068;5.198;2022-11-23T06:39:37;10.63;;;3.70;;
16880;SDS011;8557;52.068;5.198;2022-11-23T06:42:05;12.05;;;3.67;;
16880;SDS011;8557;52.068;5.198;2022-11-23T06:44:32;14.15;;;3.70;;
16880;SDS011;8557;52.068;5.198;2022-11-23T06:46:59;12.68;;;4.00;;
16880;SDS011;8557;52.068;5.198;2022-11-23T06:49:25;9.00;;;3.25;;
16880;SDS011;8557;52.068;5.198;2022-11-23T06:51:52;8.23;;;3.20;;
16880;SDS011;8557;52.068;5.198;2022-11-23T06:54:19;10.15;;;3.25;;
16880;SDS011;8557;52.068;5.198;2022-11-23T06:56:46;14.30;;;3.65;;
16880;SDS011;8557;52.068;5.198;2022-11-23T06:59:14;14.05;;;3.88;;
16880;SDS011;8557;52.068;5.198;2022-11-23T07:01:41;10.43;;;2.83;;
16880;SDS011;8557;52.068;5.198;2022-11-23T07:04:07;12.00;;;2.85;;
16880;SDS011;8557;52.068;5.198;2022-11-23T07:06:37;9.55;;;2.50;;
16880;SDS011;8557;52.068;5.198;2022-11-23T07:09:05;9.80;;;2.80;;
16880;SDS011;8557;52.068;5.198;2022-11-23T07:11:33;9.85;;;2.80;;
16880;SDS011;8557;52.068;5.198;2022-11-23T07:14:00;13.40;;;3.20;;
16880;SDS011;8557;52.068;5.198;2022-11-23T07:16:28;7.70;;;2.30;;
16880;SDS011;8557;52.068;5.198;2022-11-23T07:18:56;14.38;;;3.85;;
16880;SDS011;8557;52.068;5.198;2022-11-23T07:21:22;9.63;;;2.80;;
16880;SDS011;8557;52.068;5.198;2022-11-23T07:23:49;11.98;;;2.55;;
16880;SDS011;8557;52.068;5.198;2022-11-23T07:26:16;10.93;;;3.38;;
16880;SDS011;8557;52.068;5.198;2022-11-23T07:28:43;12.50;;;2.95;;
16880;SDS011;8557;52.068;5.198;2022-11-23T07:31:09;19.50;;;3.97;;
16880;SDS011;8557;52.068;5.198;2022-11-23T07:33:43;12.13;;;3.65;;
16880;SDS011;8557;52.068;5.198;2022-11-23T07:36:10;10.93;;;2.58;;
16880;SDS011;8557;52.068;5.198;2022-11-23T07:38:37;7.13;;;2.70;;
16880;SDS011;8557;52.068;5.198;2022-11-23T07:41:04;8.90;;;2.90;;
16880;SDS011;8557;52.068;5.198;2022-11-23T07:43:31;13.70;;;3.42;;
16880;SDS011;8557;52.068;5.198;2022-11-23T07:45:57;9.52;;;2.80;;
16880;SDS011;8557;52.068;5.198;2022-11-23T07:48:24;11.13;;;2.80;;
16880;SDS011;8557;52.068;5.198;2022-11-23T07:50:52;8.18;;;2.90;;
16880;SDS011;8557;52.068;5.198;2022-11-23T07:53:20;12.48;;;3.00;;
16880;SDS011;8557;52.068;5.198;2022-11-23T07:55:47;10.55;;;3.90;;
16880;SDS011;8557;52.068;5.198;2022-11-23T07:58:14;9.68;;;3.03;;
16880;SDS011;8557;52.068;5.198;2022-11-23T08:00:42;10.15;;;2.72;;
16880;SDS011;8557;52.068;5.198;2022-11-23T08:03:10;10.70;;;3.30;;
16880;SDS011;8557;52.068;5.198;2022-11-23T08:05:39;13.63;;;4.15;;
16880;SDS011;8557;52.068;5.198;2022-11-23T08:08:07;8.80;;;2.78;;
16880;SDS011;8557;52.068;5.198;2022-11-23T08:10:34;11.82;;;2.88;;
16880;SDS011;8557;52.068;5.198;2022-11-23T08:13:02;12.55;;;2.92;;
16880;SDS011;8557;52.068;5.198;2022-11-23T08:15:31;9.20;;;2.47;;
16880;SDS011;8557;52.068;5.198;2022-11-23T08:17:59;10.80;;;2.65;;
16880;SDS011;8557;52.068;5.198;2022-11-23T08:20:28;13.63;;;2.63;;
16880;SDS011;8557;52.068;5.198;2022-11-23T08:22:56;10.27;;;2.70;;
16880;SDS011;8557;52.068;5.198;2022-11-23T08:25:24;13.38;;;2.78;;
16880;SDS011;8557;52.068;5.198;2022-11-23T08:27:55;14.07;;;3.42;;
16880;SDS011;8557;52.068;5.198;2022-11-23T08:30:23;12.45;;;2.55;;
16880;SDS011;8557;52.068;5.198;2022-11-23T08:32:50;12.05;;;3.75;;
16880;SDS011;8557;52.068;5.198;2022-11-23T08:35:17;7.65;;;2.83;;
16880;SDS011;8557;52.068;5.198;2022-11-23T08:37:44;13.05;;;2.75;;
16880;SDS011;8557;52.068;5.198;2022-11-23T08:40:11;12.18;;;2.92;;
16880;SDS011;8557;52.068;5.198;2022-11-23T08:42:40;13.27;;;2.70;;
16880;SDS011;8557;52.068;5.198;2022-11-23T08:45:07;16.00;;;3.40;;
16880;SDS011;8557;52.068;5.198;2022-11-23T08:47:35;10.85;;;3.08;;
16880;SDS011;8557;52.068;5.198;2022-11-23T08:50:02;14.13;;;2.92;;
16880;SDS011;8557;52.068;5.198;2022-11-23T08:52:29;13.80;;;2.40;;
16880;SDS011;8557;52.068;5.198;2022-11-23T08:54:56;11.52;;;3.22;;
16880;SDS011;8557;52.068;5.198;2022-11-23T08:57:22;9.57;;;3.05;;
16880;SDS011;8557;52.068;5.198;2022-11-23T08:59:51;10.02;;;2.97;;
16880;SDS011;8557;52.068;5.198;2022-11-23T09:02:17;14.15;;;3.47;;
16880;SDS011;8557;52.068;5.198;2022-11-23T09:04:44;19.83;;;4.10;;
16880;SDS011;8557;52.068;5.198;2022-11-23T09:07:12;14.05;;;3.28;;
16880;SDS011;8557;52.068;5.198;2022-11-23T09:09:39;12.77;;;3.45;;
16880;SDS011;8557;52.068;5.198;2022-11-23T09:12:05;13.68;;;3.72;;
16880;SDS011;8557;52.068;5.198;2022-11-23T09:14:32;18.30;;;3.05;;
16880;SDS011;8557;52.068;5.198;2022-11-23T09:17:01;12.35;;;2.70;;
16880;SDS011;8557;52.068;5.198;2022-11-23T09:19:28;13.32;;;3.03;;
16880;SDS011;8557;52.068;5.198;2022-11-23T09:21:55;8.00;;;2.78;;
16880;SDS011;8557;52.068;5.198;2022-11-23T09:24:22;8.73;;;2.35;;
16880;SDS011;8557;52.068;5.198;2022-11-23T09:26:49;12.63;;;3.33;;
16880;SDS011;8557;52.068;5.198;2022-11-23T09:29:16;14.77;;;2.60;;
16880;SDS011;8557;52.068;5.198;2022-11-23T09:31:43;13.30;;;2.75;;
16880;SDS011;8557;52.068;5.198;2022-11-23T09:34:11;11.30;;;2.50;;
16880;SDS011;8557;52.068;5.198;2022-11-23T09:36:38;10.95;;;2.63;;
16880;SDS011;8557;52.068;5.198;2022-11-23T09:39:05;9.77;;;2.47;;
16880;SDS011;8557;52.068;5.198;2022-11-23T09:41:41;12.48;;;2.60;;
16880;SDS011;8557;52.068;5.198;2022-11-23T09:44:31;9.40;;;2.55;;
16880;SDS011;8557;52.068;5.198;2022-11-23T09:47:16;9.70;;;2.70;;
16880;SDS011;8557;52.068;5.198;2022-11-23T09:50:06;11.57;;;2.60;;
16880;SDS011;8557;52.068;5.198;2022-11-23T09:52:41;9.20;;;2.22;;
16880;SDS011;8557;52.068;5.198;2022-11-23T09:55:11;9.77;;;2.35;;
16880;SDS011;8557;52.068;5.198;2022-11-23T09:57:42;13.30;;;3.13;;
16880;SDS011;8557;52.068;5.198;2022-11-23T10:00:14;10.55;;;2.67;;
16880;SDS011;8557;52.068;5.198;2022-11-23T10:02:43;12.25;;;2.92;;
16880;SDS011;8557;52.068;5.198;2022-11-23T10:05:13;10.80;;;2.50;;
16880;SDS011;8557;52.068;5.198;2022-11-23T10:07:46;11.75;;;2.47;;
16880;SDS011;8557;52.068;5.198;2022-11-23T10:10:28;12.23;;;2.78;;
16880;SDS011;8557;52.068;5.198;2022-11-23T10:13:06;9.63;;;2.38;;
16880;SDS011;8557;52.068;5.198;2022-11-23T10:15:52;7.38;;;2.35;;
16880;SDS011;8557;52.068;5.198;2022-11-23T10:18:29;14.35;;;2.88;;
16880;SDS011;8557;52.068;5.198;2022-11-23T10:21:07;9.05;;;2.53;;
16880;SDS011;8557;52.068;5.198;2022-11-23T10:23:45;10.60;;;2.90;;
16880;SDS011;8557;52.068;5.198;2022-11-23T10:26:18;8.52;;;2.83;;
16880;SDS011;8557;52.068;5.198;2022-11-23T10:28:46;11.00;;;2.95;;
16880;SDS011;8557;52.068;5.198;2022-11-23T10:31:15;7.35;;;2.88;;
16880;SDS011;8557;52.068;5.198;2022-11-23T10:33:47;9.32;;;2.67;;
16880;SDS011;8557;52.068;5.198;2022-11-23T10:36:21;8.00;;;2.45;;
16880;SDS011;8557;52.068;5.198;2022-11-23T10:38:48;9.20;;;2.40;;
16880;SDS011;8557;52.068;5.198;2022-11-23T10:41:17;9.13;;;2.33;;
16880;SDS011;8557;52.068;5.198;2022-11-23T10:43:45;9.77;;;2.40;;
16880;SDS011;8557;52.068;5.198;2022-11-23T10:46:28;8.50;;;2.63;;
16880;SDS011;8557;52.068;5.198;2022-11-23T10:49:08;11.57;;;2.67;;
16880;SDS011;8557;52.068;5.198;2022-11-23T10:51:50;9.82;;;2.20;;
16880;SDS011;8557;52.068;5.198;2022-11-23T10:54:20;7.45;;;2.50;;
16880;SDS011;8557;52.068;5.198;2022-11-23T10:56:52;9.95;;;2.75;;
16880;SDS011;8557;52.068;5.198;2022-11-23T10:59:34;9.05;;;2.45;;
16880;SDS011;8557;52.068;5.198;2022-11-23T11:02:15;9.15;;;2.30;;
16880;SDS011;8557;52.068;5.198;2022-11-23T11:04:44;8.90;;;2.42;;
16880;SDS011;8557;52.068;5.198;2022-11-23T11:07:19;8.98;;;2.30;;
16880;SDS011;8557;52.068;5.198;2022-11-23T11:09:49;9.52;;;2.55;;
16880;SDS011;8557;52.068;5.198;2022-11-23T11:12:17;9.15;;;2.60;;
16880;SDS011;8557;52.068;5.198;2022-11-23T11:14:54;10.00;;;2.85;;
16880;SDS011;8557;52.068;5.198;2022-11-23T11:17:26;9.25;;;2.10;;
16880;SDS011;8557;52.068;5.198;2022-11-23T11:19:54;8.68;;;2.40;;
16880;SDS011;8557;52.068;5.198;2022-11-23T11:22:26;9.70;;;2.45;;
16880;SDS011;8557;52.068;5.198;2022-11-23T11:24:58;13.00;;;3.92;;
16880;SDS011;8557;52.068;5.198;2022-11-23T11:27:25;7.47;;;2.40;;
16880;SDS011;8557;52.068;5.198;2022-11-23T11:29:55;7.57;;;2.20;;
16880;SDS011;8557;52.068;5.198;2022-11-23T11:32:24;9.65;;;2.58;;
16880;SDS011;8557;52.068;5.198;2022-11-23T11:35:00;10.98;;;2.35;;
16880;SDS011;8557;52.068;5.198;2022-11-23T11:37:36;5.55;;;1.90;;
16880;SDS011;8557;52.068;5.198;2022-11-23T11:40:09;9.68;;;2.40;;
16880;SDS011;8557;52.068;5.198;2022-11-23T11:42:43;4.78;;;1.70;;
16880;SDS011;8557;52.068;5.198;2022-11-23T11:45:16;6.35;;;1.70;;
16880;SDS011;8557;52.068;5.198;2022-11-23T11:47:49;6.68;;;2.05;;
16880;SDS011;8557;52.068;5.198;2022-11-23T11:50:21;4.88;;;1.70;;
16880;SDS011;8557;52.068;5.198;2022-11-23T11:52:54;6.70;;;1.90;;
16880;SDS011;8557;52.068;5.198;2022-11-23T11:55:25;7.55;;;1.95;;
16880;SDS011;8557;52.068;5.198;2022-11-23T11:58:01;8.38;;;1.90;;
16880;SDS011;8557;52.068;5.198;2022-11-23T12:00:40;6.05;;;1.95;;
16880;SDS011;8557;52.068;5.198;2022-11-23T12:03:11;7.40;;;1.92;;
16880;SDS011;8557;52.068;5.198;2022-11-23T12:05:46;7.05;;;2.75;;
16880;SDS011;8557;52.068;5.198;2022-11-23T12:08:17;8.90;;;1.80;;
16880;SDS011;8557;52.068;5.198;2022-11-23T12:10:50;7.38;;;2.13;;
16880;SDS011;8557;52.068;5.198;2022-11-23T12:13:20;9.57;;;1.70;;
16880;SDS011;8557;52.068;5.198;2022-11-23T12:15:49;8.18;;;1.80;;
16880;SDS011;8557;52.068;5.198;2022-11-23T12:21:15;8.23;;;2.00;;
16880;SDS011;8557;52.068;5.198;2022-11-23T12:24:06;5.82;;;1.67;;
16880;SDS011;8557;52.068;5.198;2022-11-23T12:26:44;8.38;;;1.83;;
16880;SDS011;8557;52.068;5.198;2022-11-23T12:32:08;7.47;;;2.22;;
16880;SDS011;8557;52.068;5.198;2022-11-23T12:34:53;5.63;;;1.63;;
16880;SDS011;8557;52.068;5.198;2022-11-23T12:37:30;6.80;;;1.67;;
16880;SDS011;8557;52.068;5.198;2022-11-23T12:43:05;5.22;;;1.70;;
16880;SDS011;8557;52.068;5.198;2022-11-23T12:45:42;4.68;;;1.80;;
16880;SDS011;8557;52.068;5.198;2022-11-23T12:48:21;7.70;;;2.92;;
16880;SDS011;8557;52.068;5.198;2022-11-23T12:50:59;7.75;;;2.13;;
16880;SDS011;8557;52.068;5.198;2022-11-23T12:53:38;4.80;;;1.60;;
16880;SDS011;8557;52.068;5.198;2022-11-23T12:56:19;4.78;;;1.50;;
16880;SDS011;8557;52.068;5.198;2022-11-23T12:58:53;6.57;;;1.95;;
16880;SDS011;8557;52.068;5.198;2022-11-23T13:01:21;5.95;;;2.22;;
16880;SDS011;8557;52.068;5.198;2022-11-23T13:04:07;6.60;;;1.80;;
16880;SDS011;8557;52.068;5.198;2022-11-23T13:07:14;4.22;;;1.50;;
16880;SDS011;8557;52.068;5.198;2022-11-23T13:10:15;5.63;;;1.70;;
16880;SDS011;8557;52.068;5.198;2022-11-23T13:13:14;5.72;;;1.65;;
16880;SDS011;8557;52.068;5.198;2022-11-23T13:15:59;8.63;;;2.00;;
16880;SDS011;8557;52.068;5.198;2022-11-23T13:18:46;5.93;;;1.73;;
16880;SDS011;8557;52.068;5.198;2022-11-23T13:21:22;6.75;;;1.85;;
16880;SDS011;8557;52.068;5.198;2022-11-23T13:23:54;7.20;;;1.60;;
16880;SDS011;8557;52.068;5.198;2022-11-23T13:26:21;6.32;;;1.80;;
16880;SDS011;8557;52.068;5.198;2022-11-23T13:28:51;4.88;;;1.75;;
16880;SDS011;8557;52.068;5.198;2022-11-23T13:31:22;5.47;;;2.00;;
16880;SDS011;8557;52.068;5.198;2022-11-23T13:33:51;7.13;;;2.13;;
16880;SDS011;8557;52.068;5.198;2022-11-23T13:36:38;8.15;;;2.05;;
16880;SDS011;8557;52.068;5.198;2022-11-23T13:42:18;5.35;;;2.38;;
16880;SDS011;8557;52.068;5.198;2022-11-23T13:44:47;4.22;;;1.70;;
16880;SDS011;8557;52.068;5.198;2022-11-23T13:47:19;3.83;;;1.60;;
16880;SDS011;8557;52.068;5.198;2022-11-23T13:49:46;6.45;;;1.60;;
16880;SDS011;8557;52.068;5.198;2022-11-23T13:52:21;4.65;;;1.88;;
16880;SDS011;8557;52.068;5.198;2022-11-23T13:54:59;7.85;;;1.60;;
16880;SDS011;8557;52.068;5.198;2022-11-23T13:57:44;10.13;;;1.63;;
16880;SDS011;8557;52.068;5.198;2022-11-23T14:00:46;13.25;;;2.97;;
16880;SDS011;8557;52.068;5.198;2022-11-23T14:06:22;5.30;;;1.50;;
16880;SDS011;8557;52.068;5.198;2022-11-23T14:08:53;3.47;;;1.35;;
16880;SDS011;8557;52.068;5.198;2022-11-23T14:11:26;8.75;;;1.67;;
16880;SDS011;8557;52.068;5.198;2022-11-23T14:13:55;3.53;;;1.65;;
16880;SDS011;8557;52.068;5.198;2022-11-23T14:16:32;4.75;;;1.70;;
16880;SDS011;8557;52.068;5.198;2022-11-23T14:19:16;4.57;;;1.38;;
16880;SDS011;8557;52.068;5.198;2022-11-23T14:21:54;3.00;;;1.35;;
16880;SDS011;8557;52.068;5.198;2022-11-23T14:24:31;7.47;;;2.22;;
16880;SDS011;8557;52.068;5.198;2022-11-23T14:27:32;5.60;;;1.40;;
16880;SDS011;8557;52.068;5.198;2022-11-23T14:30:25;5.10;;;1.77;;
16880;SDS011;8557;52.068;5.198;2022-11-23T14:33:08;6.57;;;2.70;;
16880;SDS011;8557;52.068;5.198;2022-11-23T14:35:48;16.27;;;6.10;;
16880;SDS011;8557;52.068;5.198;2022-11-23T14:41:21;3.30;;;1.50;;
16880;SDS011;8557;52.068;5.198;2022-11-23T14:43:51;3.55;;;1.33;;
16880;SDS011;8557;52.068;5.198;2022-11-23T14:46:20;8.43;;;2.00;;
16880;SDS011;8557;52.068;5.198;2022-11-23T14:48:51;11.00;;;2.10;;
16880;SDS011;8557;52.068;5.198;2022-11-23T14:51:30;4.70;;;1.80;;
16880;SDS011;8557;52.068;5.198;2022-11-23T14:53:58;4.55;;;1.70;;
16880;SDS011;8557;52.068;5.198;2022-11-23T14:56:30;6.05;;;1.65;;
16880;SDS011;8557;52.068;5.198;2022-11-23T14:59:00;3.00;;;1.52;;
16880;SDS011;8557;52.068;5.198;2022-11-23T15:01:29;6.85;;;2.40;;
16880;SDS011;8557;52.068;5.198;2022-11-23T15:03:58;5.78;;;1.55;;
16880;SDS011;8557;52.068;5.198;2022-11-23T15:06:32;4.68;;;1.45;;
16880;SDS011;8557;52.068;5.198;2022-11-23T15:09:05;4.38;;;1.50;;
16880;SDS011;8557;52.068;5.198;2022-11-23T15:11:40;24.95;;;4.95;;
16880;SDS011;8557;52.068;5.198;2022-11-23T15:14:15;5.05;;;2.50;;
16880;SDS011;8557;52.068;5.198;2022-11-23T15:16:43;5.72;;;2.30;;
16880;SDS011;8557;52.068;5.198;2022-11-23T15:19:22;3.65;;;1.50;;
16880;SDS011;8557;52.068;5.198;2022-11-23T15:21:53;3.40;;;1.60;;
16880;SDS011;8557;52.068;5.198;2022-11-23T15:24:20;5.80;;;2.25;;
16880;SDS011;8557;52.068;5.198;2022-11-23T15:26:49;4.05;;;1.60;;